Impacts TAF Board
For situational awareness. Not to be used for flight planning purposes.
IDs:

KBOS - Boston/Logan Intl, MA, US

Issued at 1402 UTC 24 Sep 2018
Updated at 1718 UTC 24 Sep 2018
Potential Impact None Slight Moderate High
Time<<25/06Z 25/07Z 25/08Z 25/09Z 25/10Z 25/11Z 25/12Z 25/13Z 25/14Z 25/15Z 25/16Z 25/17Z 25/18Z>>
Type PRVL PRVL PRVL PRVL PRVL PRVL PRVL PRVL PRVL PRVL PRVL PRVL
VIS >6 >6 >6 >6 >6 >6 >6 >6 >6 >6 >6 >6
CIG -- -- -- -- 200 200 200 200 200 200 200 200
Cover SCT SCT SCT SCT BKN BKN BKN BKN BKN BKN BKN BKN
FltCat VFR VFR VFR VFR VFR VFR VFR VFR VFR VFR VFR VFR
WX -- -- -- -- -- -- -- -- -- -- -- --
WDir 70 70 70 70 110 110 110 110 110 110 110 110
WSpd 12 12 12 12 11 11 11 11 11 11 11 11
WGst -- -- -- -- -- -- -- -- -- -- -- --
Raw TAF
KBOS 241402Z 2414/2518 06016G26KT P6SM BKN025
  FM241800 07014KT P6SM BKN035
  FM242000 08013KT P6SM BKN080
  FM242300 07012KT P6SM SCT130
  FM251000 11011KT P6SM BKN200


METAR Board
Radar Display
Forecast Discussion
For situational awareness. Not to be used for flight planning purposes.